Stroe, Netherlands
Current Conditions -  °F | °C
As of 1:25 AM on Tuesday 21 Oct 2014 (Local Time) from EHDL Reporting Station
Broken Clouds Broken Clouds  
Wind Chill: 55°   Ceiling: 7300
Heat Index: 55°   Visibility: 6mi
Dew Point: 52°   Wind: 13mph
Humidity: 88%   Direction: 210°SSW
Pressure: 29.85"   Gusts: NA
Location:  52.19°N, 5.69°E
Report Text: EHDL 202325Z AUTO 21011KT 9999 FEW060 BKN073 BKN099 13/11 Q1011 BLU
Loading
Personal Weather Stations






























Interactive Weather Map
Tropical Storm Tracking
New forecast layout! Learn more

10-Day Weather Forecast

Advertisements
Track Severe Weather on mobile